createdAt,value
2019-02-04T00:02:24.330Z,22.33
2019-02-04T00:04:53.137Z,26.33
2019-02-04T00:07:21.947Z,52.43
2019-02-04T00:09:50.736Z,31.70
2019-02-04T00:12:19.539Z,19.07
2019-02-04T00:14:48.317Z,25.67
2019-02-04T00:17:17.114Z,23.90
2019-02-04T00:19:45.935Z,29.87
2019-02-04T00:22:14.745Z,26.00
2019-02-04T00:24:44.163Z,18.40
2019-02-04T00:27:13.011Z,27.33
2019-02-04T00:29:41.806Z,25.20
2019-02-04T00:32:10.608Z,24.00
2019-02-04T00:34:39.471Z,23.47
2019-02-04T00:37:08.267Z,19.70
2019-02-04T00:39:37.072Z,21.70
2019-02-04T00:42:05.932Z,26.23
2019-02-04T00:44:34.702Z,22.10
2019-02-04T00:47:03.497Z,31.30
2019-02-04T00:49:32.298Z,28.57
2019-02-04T00:52:01.172Z,18.13
2019-02-04T00:54:29.970Z,38.27
2019-02-04T00:56:58.788Z,19.53
2019-02-04T00:59:27.604Z,21.00
2019-02-04T01:01:56.372Z,25.47
2019-02-04T01:04:25.215Z,23.17
2019-02-04T01:06:54.030Z,21.77
2019-02-04T01:09:22.816Z,22.10
2019-02-04T01:11:51.616Z,17.07
2019-02-04T01:14:20.401Z,18.33
2019-02-04T01:16:49.187Z,24.70
2019-02-04T01:19:17.980Z,21.20
2019-02-04T01:21:47.486Z,18.80
2019-02-04T01:24:16.285Z,26.73
2019-02-04T01:26:45.097Z,20.33
2019-02-04T01:29:13.916Z,29.03
2019-02-04T01:31:42.738Z,26.20
2019-02-04T01:34:11.566Z,27.83
2019-02-04T01:36:40.364Z,27.03
2019-02-04T01:39:09.736Z,24.87
2019-02-04T01:41:38.540Z,22.10
2019-02-04T01:44:07.359Z,27.50
2019-02-04T01:46:36.155Z,27.77
2019-02-04T01:49:04.978Z,26.03
2019-02-04T01:51:33.786Z,25.50
2019-02-04T01:54:02.575Z,23.57
2019-02-04T01:56:31.383Z,23.03
2019-02-04T01:59:00.182Z,26.17
2019-02-04T02:01:28.975Z,31.93
2019-02-04T02:03:57.787Z,39.20
2019-02-04T02:06:26.581Z,33.77
2019-02-04T02:08:55.382Z,27.97
2019-02-04T02:11:24.167Z,28.67
2019-02-04T02:13:52.964Z,23.40
2019-02-04T02:16:21.751Z,27.43
2019-02-04T02:18:50.539Z,26.23
2019-02-04T02:21:19.344Z,30.47
2019-02-04T02:23:48.134Z,23.17
2019-02-04T02:26:16.960Z,23.20
2019-02-04T02:28:45.748Z,29.77
2019-02-04T02:31:14.531Z,24.80
2019-02-04T02:33:43.367Z,24.97
2019-02-04T02:36:12.169Z,26.93
2019-02-04T02:38:40.970Z,30.87
2019-02-04T02:41:09.760Z,27.63
2019-02-04T02:43:38.567Z,26.40
2019-02-04T02:46:07.415Z,20.97
2019-02-04T02:48:36.222Z,23.80
2019-02-04T02:51:05.060Z,29.77
2019-02-04T02:53:33.859Z,28.33
2019-02-04T02:56:02.657Z,28.60
2019-02-04T02:58:31.504Z,26.10
2019-02-04T03:01:00.290Z,23.93
2019-02-04T03:03:29.121Z,23.23
2019-02-04T03:05:57.925Z,22.80
2019-02-04T03:08:26.703Z,27.03
2019-02-04T03:10:55.497Z,25.20
2019-02-04T03:13:24.372Z,25.33
2019-02-04T03:15:53.262Z,26.83
2019-02-04T03:18:22.050Z,42.13
2019-02-04T03:20:50.821Z,25.27
2019-02-04T03:23:19.607Z,24.30
2019-02-04T03:25:48.436Z,26.77
2019-02-04T03:28:17.220Z,25.17
2019-02-04T03:30:46.753Z,29.50
2019-02-04T03:33:15.586Z,28.07
2019-02-04T03:35:44.392Z,24.60
2019-02-04T03:38:13.177Z,31.03
2019-02-04T03:40:41.962Z,34.17
2019-02-04T03:43:10.779Z,30.73
2019-02-04T03:45:39.593Z,22.73
2019-02-04T03:48:09.664Z,33.83
2019-02-04T03:50:37.205Z,35.70
2019-02-04T03:53:06.076Z,27.77
2019-02-04T03:55:34.813Z,24.90
2019-02-04T03:58:03.618Z,28.37
2019-02-04T04:00:34.175Z,30.20
2019-02-04T04:03:03.008Z,22.33
2019-02-04T04:05:33.608Z,38.90
2019-02-04T04:08:02.415Z,34.73
2019-02-04T04:10:31.771Z,33.17
2019-02-04T04:13:00.711Z,25.87
2019-02-04T04:15:29.566Z,29.43
2019-02-04T04:17:58.361Z,30.33
2019-02-04T04:20:27.180Z,32.63
2019-02-04T04:22:55.987Z,32.17
2019-02-04T04:25:24.944Z,29.00
2019-02-04T04:27:53.792Z,23.23
2019-02-04T04:30:24.662Z,29.03
2019-02-04T04:32:53.491Z,26.07
2019-02-04T04:35:22.359Z,37.53
2019-02-04T04:37:51.826Z,29.57
2019-02-04T04:40:20.631Z,35.17
2019-02-04T04:42:49.448Z,26.73
2019-02-04T04:45:21.068Z,30.20
2019-02-04T04:47:49.869Z,25.87
2019-02-04T04:50:18.722Z,27.30
2019-02-04T04:52:47.547Z,30.23
2019-02-04T04:55:18.659Z,25.70
2019-02-04T04:57:47.478Z,26.13
2019-02-04T05:00:18.999Z,29.90
2019-02-04T05:02:47.802Z,29.67
2019-02-04T05:05:16.614Z,25.17
2019-02-04T05:07:45.444Z,32.17
2019-02-04T05:10:16.044Z,40.10
2019-02-04T05:12:44.844Z,29.60
2019-02-04T05:15:16.256Z,35.37
2019-02-04T05:17:45.053Z,36.07
2019-02-04T05:20:14.155Z,34.97
2019-02-04T05:22:42.977Z,33.57
2019-02-04T05:25:11.778Z,28.97
2019-02-04T05:27:40.592Z,28.60
2019-02-04T05:30:11.866Z,32.10
2019-02-04T05:32:40.668Z,33.33
2019-02-04T05:35:09.487Z,34.73
2019-02-04T05:37:38.292Z,35.13
2019-02-04T05:40:08.780Z,29.77
2019-02-04T05:42:37.600Z,32.83
2019-02-04T05:45:07.328Z,41.37
2019-02-04T05:47:36.111Z,40.30
2019-02-04T05:50:05.238Z,35.90
2019-02-04T05:52:34.023Z,40.33
2019-02-04T05:55:02.824Z,38.30
2019-02-04T05:57:31.651Z,39.00
2019-02-04T06:00:00.508Z,31.73
2019-02-04T06:02:29.311Z,31.53
2019-02-04T06:04:58.123Z,31.83
2019-02-04T06:07:26.984Z,26.00
2019-02-04T06:09:55.812Z,39.27
2019-02-04T06:12:24.632Z,32.80
2019-02-04T06:14:53.433Z,31.87
2019-02-04T06:17:22.283Z,30.50
2019-02-04T06:19:51.373Z,26.53
2019-02-04T06:22:20.134Z,23.93
2019-02-04T06:24:48.970Z,30.23
2019-02-04T06:27:17.781Z,29.50
2019-02-04T06:29:46.576Z,29.67
2019-02-04T06:32:15.437Z,29.57
2019-02-04T06:34:44.299Z,31.13
2019-02-04T06:37:13.176Z,40.87
2019-02-04T06:39:41.983Z,33.53
2019-02-04T06:42:11.446Z,26.00
2019-02-04T06:44:40.297Z,32.70
2019-02-04T06:47:09.189Z,28.77
2019-02-04T06:49:38.015Z,28.50
2019-02-04T06:52:06.912Z,37.13
2019-02-04T06:54:35.747Z,30.57
2019-02-04T06:57:04.586Z,34.43
2019-02-04T06:59:33.459Z,32.23
2019-02-04T07:02:02.267Z,28.17
2019-02-04T07:04:31.136Z,27.83
2019-02-04T07:06:59.983Z,38.40
2019-02-04T07:09:28.779Z,28.20
2019-02-04T07:11:58.511Z,23.73
2019-02-04T07:14:27.386Z,33.43
2019-02-04T07:16:56.207Z,39.40
2019-02-04T07:19:25.059Z,26.63
2019-02-04T07:21:53.848Z,23.90
2019-02-04T07:24:22.667Z,26.23
2019-02-04T07:26:51.460Z,27.60
2019-02-04T07:29:20.289Z,25.23
2019-02-04T07:31:49.059Z,22.57
2019-02-04T07:34:17.867Z,22.80
2019-02-04T07:36:46.675Z,28.93
2019-02-04T07:39:15.923Z,25.10
2019-02-04T07:41:44.734Z,27.17
2019-02-04T07:44:13.579Z,23.97
2019-02-04T07:46:42.535Z,24.33
2019-02-04T07:49:11.369Z,24.10
2019-02-04T07:51:40.227Z,24.13
2019-02-04T07:54:09.022Z,29.90
2019-02-04T07:56:38.899Z,30.07
2019-02-04T07:59:08.588Z,22.27
2019-02-04T08:01:38.533Z,31.00
2019-02-04T08:04:08.643Z,36.17
2019-02-04T08:06:38.644Z,25.93
2019-02-04T08:09:08.817Z,23.80
2019-02-04T08:11:37.632Z,26.17
2019-02-04T08:14:06.678Z,22.30
2019-02-04T08:16:38.431Z,28.67
2019-02-04T08:19:07.898Z,26.67
2019-02-04T08:21:38.859Z,35.43
2019-02-04T08:24:07.735Z,23.77
2019-02-04T08:26:37.420Z,25.70
2019-02-04T08:29:06.237Z,21.93
2019-02-04T08:31:35.050Z,30.20
2019-02-04T08:34:03.940Z,22.20
2019-02-04T08:36:43.030Z,25.37
2019-02-04T08:39:02.081Z,25.17
2019-02-04T08:41:30.950Z,25.83
2019-02-04T08:43:59.774Z,26.03
2019-02-04T08:46:28.868Z,23.90
2019-02-04T08:48:58.402Z,27.47
2019-02-04T08:51:27.203Z,22.57
2019-02-04T08:53:55.992Z,26.47
2019-02-04T08:56:24.792Z,26.87
2019-02-04T08:58:53.609Z,24.97
2019-02-04T09:01:22.422Z,24.67
2019-02-04T09:03:51.224Z,23.87
2019-02-04T09:06:20.023Z,16.70
2019-02-04T09:08:48.828Z,25.90
2019-02-04T09:11:17.632Z,19.97
2019-02-04T09:13:46.521Z,22.13
2019-02-04T09:16:15.237Z,21.97
2019-02-04T09:18:45.067Z,22.13
2019-02-04T09:21:12.956Z,28.13
2019-02-04T09:23:41.868Z,26.00
2019-02-04T09:26:10.563Z,21.93
2019-02-04T09:28:39.506Z,22.83
2019-02-04T09:31:08.283Z,24.77
2019-02-04T09:33:37.075Z,18.80
2019-02-04T09:36:05.920Z,22.53
2019-02-04T09:38:34.707Z,23.60
2019-02-04T09:41:03.523Z,14.30
2019-02-04T09:43:32.323Z,19.63
2019-02-04T09:46:01.192Z,21.57
2019-02-04T09:48:29.983Z,18.20
2019-02-04T09:51:00.984Z,22.03
2019-02-04T09:53:29.752Z,15.60
2019-02-04T09:55:58.543Z,20.17
2019-02-04T09:58:27.355Z,15.90
2019-02-04T10:00:56.285Z,15.77
2019-02-04T10:03:25.816Z,17.00
2019-02-04T10:05:54.755Z,23.47
2019-02-04T10:08:23.510Z,17.43
2019-02-04T10:10:52.300Z,16.10
2019-02-04T10:13:21.168Z,14.70
2019-02-04T10:15:49.975Z,18.07
2019-02-04T10:18:18.797Z,14.93
2019-02-04T10:20:47.635Z,16.93
2019-02-04T10:23:16.398Z,19.00
2019-02-04T10:25:45.240Z,23.37
2019-02-04T10:28:14.761Z,16.80
2019-02-04T10:30:43.571Z,15.50
2019-02-04T10:33:12.376Z,14.00
2019-02-04T10:35:41.307Z,18.30
2019-02-04T10:38:09.959Z,14.00
2019-02-04T10:40:38.738Z,16.10
2019-02-04T10:43:07.570Z,14.60
2019-02-04T10:45:36.417Z,14.40
2019-02-04T10:48:05.247Z,17.50
2019-02-04T10:50:45.743Z,12.07
2019-02-04T10:53:05.634Z,15.70
2019-02-04T10:55:35.045Z,14.90
2019-02-04T10:58:03.837Z,12.97
2019-02-04T11:00:33.479Z,16.43
2019-02-04T11:03:02.336Z,18.80
2019-02-04T11:05:32.561Z,18.13
2019-02-04T11:08:01.388Z,16.03
2019-02-04T11:10:33.582Z,11.07
2019-02-04T11:13:02.788Z,11.70
2019-02-04T11:15:31.551Z,12.83
2019-02-04T11:18:00.382Z,11.30
2019-02-04T11:20:29.685Z,13.83
2019-02-04T11:22:58.466Z,11.77
2019-02-04T11:25:27.255Z,14.47
2019-02-04T11:27:56.101Z,19.97
2019-02-04T11:30:27.687Z,11.27
2019-02-04T11:32:56.600Z,17.73
2019-02-04T11:35:25.292Z,10.60
2019-02-04T11:37:54.119Z,13.80
2019-02-04T11:40:26.805Z,13.00
2019-02-04T11:42:55.646Z,13.43
2019-02-04T11:45:24.464Z,10.60
2019-02-04T11:47:53.306Z,11.30
2019-02-04T11:50:22.133Z,14.20
2019-02-04T11:52:50.916Z,20.20
2019-02-04T11:55:19.704Z,11.90
2019-02-04T11:57:48.555Z,15.50
2019-02-04T12:00:21.440Z,14.83
2019-02-04T12:02:50.647Z,15.90
2019-02-04T12:05:19.991Z,13.30
2019-02-04T12:07:48.822Z,13.53
2019-02-04T12:10:21.155Z,12.20
2019-02-04T12:12:50.018Z,12.00
2019-02-04T12:15:19.972Z,29.37
2019-02-04T12:17:48.900Z,13.90
2019-02-04T12:20:17.786Z,14.37
2019-02-04T12:22:46.621Z,16.57
2019-02-04T12:25:17.148Z,16.43
2019-02-04T12:27:45.989Z,13.33
2019-02-04T12:30:19.435Z,11.63
2019-02-04T12:32:48.267Z,10.60
2019-02-04T12:35:17.120Z,9.33
2019-02-04T12:37:45.960Z,16.00
2019-02-04T12:40:14.792Z,18.13
2019-02-04T12:42:43.621Z,13.63
2019-02-04T12:45:16.179Z,19.17
2019-02-04T12:47:45.014Z,11.63
2019-02-04T12:50:13.801Z,24.20
2019-02-04T12:52:42.625Z,14.20
2019-02-04T12:55:13.587Z,11.00
2019-02-04T12:57:42.432Z,10.83
2019-02-04T13:00:14.530Z,14.73
2019-02-04T13:02:43.386Z,11.47
2019-02-04T13:05:15.485Z,12.00
2019-02-04T13:07:44.365Z,13.73
2019-02-04T13:10:14.410Z,12.40
2019-02-04T13:12:43.293Z,11.83
2019-02-04T13:15:14.460Z,11.37
2019-02-04T13:17:43.309Z,10.63
2019-02-04T13:20:13.552Z,10.43
2019-02-04T13:22:42.336Z,19.17
2019-02-04T13:25:12.959Z,12.77
2019-02-04T13:27:41.779Z,10.07
2019-02-04T13:30:12.375Z,14.10
2019-02-04T13:32:41.208Z,14.10
2019-02-04T13:35:10.969Z,8.23
2019-02-04T13:37:39.796Z,13.90
2019-02-04T13:40:11.015Z,16.97
2019-02-04T13:42:39.822Z,16.40
2019-02-04T13:45:10.644Z,13.87
2019-02-04T13:47:39.412Z,15.30
2019-02-04T13:50:08.271Z,12.70
2019-02-04T13:52:37.076Z,11.37
2019-02-04T13:55:07.570Z,11.07
2019-02-04T13:57:36.464Z,13.33
2019-02-04T14:00:06.257Z,14.00
2019-02-04T14:02:35.098Z,12.97
2019-02-04T14:05:03.916Z,10.47
2019-02-04T14:07:32.718Z,9.60
2019-02-04T14:10:01.497Z,12.57
2019-02-04T14:12:30.287Z,12.10
2019-02-04T14:14:59.147Z,8.77
2019-02-04T14:17:27.927Z,10.97
2019-02-04T14:19:56.803Z,7.33
2019-02-04T14:22:25.579Z,13.70
2019-02-04T14:24:54.359Z,15.63
2019-02-04T14:27:23.200Z,7.67
2019-02-04T14:29:52.055Z,5.87
2019-02-04T14:32:21.020Z,8.57
2019-02-04T14:34:51.420Z,15.13
2019-02-04T14:37:18.815Z,5.60
2019-02-04T14:39:47.612Z,8.50
2019-02-04T14:42:18.043Z,11.67
2019-02-04T14:44:54.023Z,9.47
2019-02-04T14:47:28.855Z,11.23
2019-02-04T14:50:09.248Z,10.47
2019-02-04T14:53:52.803Z,11.97
2019-02-04T14:56:31.679Z,10.03
2019-02-04T14:59:21.972Z,14.70
2019-02-04T15:02:03.472Z,10.87
2019-02-04T15:04:44.192Z,11.33
2019-02-04T15:07:58.133Z,10.10
2019-02-04T15:10:43.647Z,11.80
2019-02-04T15:13:25.523Z,9.97
2019-02-04T15:16:29.657Z,15.03
2019-02-04T15:19:07.388Z,11.50
2019-02-04T15:21:48.806Z,10.80
2019-02-04T15:24:38.602Z,12.53
2019-02-04T15:27:15.246Z,10.57
2019-02-04T15:29:50.352Z,8.80
2019-02-04T15:33:35.967Z,10.20
2019-02-04T15:36:16.118Z,11.37
2019-02-04T15:38:54.573Z,12.93
2019-02-04T15:41:36.276Z,9.90
2019-02-04T15:44:16.517Z,9.37
2019-02-04T15:47:10.003Z,11.47
2019-02-04T15:49:52.668Z,12.33
2019-02-04T15:52:21.601Z,12.87
2019-02-04T15:54:51.454Z,9.63
2019-02-04T15:57:20.308Z,10.63
2019-02-04T15:59:49.151Z,9.77
2019-02-04T16:02:18.060Z,11.03
2019-02-04T16:04:46.887Z,11.80
2019-02-04T16:07:15.844Z,13.33
2019-02-04T16:09:44.663Z,12.60
2019-02-04T16:12:13.520Z,10.60
2019-02-04T16:14:42.300Z,8.20
2019-02-04T16:17:11.683Z,12.53
2019-02-04T16:19:40.507Z,13.83
2019-02-04T16:22:09.267Z,9.87
2019-02-04T16:24:38.076Z,8.90
2019-02-04T16:27:06.947Z,11.30
2019-02-04T16:29:35.753Z,11.13
2019-02-04T16:32:04.966Z,13.13
2019-02-04T16:34:33.769Z,11.43
2019-02-04T16:37:02.552Z,12.10
2019-02-04T16:39:31.408Z,8.70
2019-02-04T16:42:00.229Z,7.53
2019-02-04T16:44:29.075Z,9.47
2019-02-04T16:46:59.226Z,7.17
2019-02-04T16:49:28.128Z,11.07
2019-02-04T16:51:56.963Z,8.50
2019-02-04T16:54:25.805Z,11.67
2019-02-04T16:56:54.631Z,8.50
2019-02-04T16:59:23.420Z,7.63
2019-02-04T17:01:52.251Z,9.27
2019-02-04T17:04:21.084Z,7.13
2019-02-04T17:06:49.856Z,10.20
2019-02-04T17:09:18.627Z,12.57
2019-02-04T17:11:49.044Z,13.40
2019-02-04T17:14:17.807Z,10.37
2019-02-04T17:16:46.619Z,11.60
2019-02-04T17:19:16.021Z,14.03
2019-02-04T17:21:44.906Z,23.60
2019-02-04T17:24:13.796Z,17.60
2019-02-04T17:26:42.615Z,10.20
2019-02-04T17:29:11.439Z,10.90
2019-02-04T17:31:40.222Z,12.77
2019-02-04T17:34:09.091Z,11.73
2019-02-04T17:36:37.905Z,9.00
2019-02-04T17:39:07.794Z,9.07
2019-02-04T17:41:36.554Z,10.50
2019-02-04T17:44:06.022Z,6.50
2019-02-04T17:46:34.815Z,8.83
2019-02-04T17:49:03.795Z,11.23
2019-02-04T17:51:32.633Z,9.33
2019-02-04T17:54:01.429Z,10.47
2019-02-04T17:56:30.308Z,8.70
2019-02-04T17:58:59.148Z,9.90
2019-02-04T18:01:27.947Z,10.33
2019-02-04T18:03:56.824Z,11.57
2019-02-04T18:06:27.029Z,9.90
2019-02-04T18:08:55.826Z,11.17
2019-02-04T18:11:24.633Z,9.37
2019-02-04T18:13:53.363Z,33.97
2019-02-04T18:16:22.211Z,14.47
2019-02-04T18:18:51.021Z,13.37
2019-02-04T18:21:19.766Z,10.90
2019-02-04T18:23:48.683Z,11.70
2019-02-04T18:26:17.706Z,13.93
2019-02-04T18:28:47.842Z,12.03
2019-02-04T18:31:15.289Z,12.23
2019-02-04T18:33:44.095Z,17.03
2019-02-04T18:36:12.892Z,12.73
2019-02-04T18:38:41.737Z,14.03
2019-02-04T18:41:10.467Z,15.77
2019-02-04T18:43:39.334Z,21.50
2019-02-04T18:46:08.160Z,11.00
2019-02-04T18:48:36.939Z,10.80
2019-02-04T18:51:05.738Z,15.73
2019-02-04T18:53:34.564Z,13.60
2019-02-04T18:56:03.391Z,15.13
2019-02-04T18:58:33.138Z,19.37
2019-02-04T19:01:00.934Z,14.57
2019-02-04T19:03:29.724Z,16.50
2019-02-04T19:05:58.510Z,14.03
2019-02-04T19:08:27.302Z,12.50
2019-02-04T19:10:56.171Z,17.23
2019-02-04T19:13:35.457Z,12.27
2019-02-04T19:15:53.749Z,12.57
2019-02-04T19:18:22.540Z,11.63
2019-02-04T19:20:51.393Z,12.20
2019-02-04T19:23:20.183Z,14.97
2019-02-04T19:25:49.077Z,13.83
2019-02-04T19:28:17.965Z,14.50
2019-02-04T19:30:50.521Z,17.17
2019-02-04T19:33:19.384Z,14.87
2019-02-04T19:35:48.322Z,16.80
2019-02-04T19:38:17.158Z,19.10
2019-02-04T19:40:45.941Z,15.20
2019-02-04T19:43:14.792Z,14.17
2019-02-04T19:45:43.572Z,13.73
2019-02-04T19:48:12.515Z,17.27
2019-02-04T19:50:41.375Z,18.40
2019-02-04T19:53:10.187Z,12.90
2019-02-04T19:55:39.019Z,12.03
2019-02-04T19:58:07.909Z,14.30
2019-02-04T20:00:36.706Z,14.40
2019-02-04T20:03:05.863Z,14.47
2019-02-04T20:05:34.643Z,16.10
2019-02-04T20:08:03.467Z,16.43
2019-02-04T20:10:33.258Z,17.80
2019-02-04T20:13:02.132Z,12.23
2019-02-04T20:15:30.888Z,14.97
2019-02-04T20:17:59.668Z,13.37
2019-02-04T20:20:28.467Z,20.93
2019-02-04T20:22:57.247Z,25.77
2019-02-04T20:25:27.826Z,17.40
2019-02-04T20:27:56.653Z,19.23
2019-02-04T20:30:29.829Z,16.40
2019-02-04T20:32:58.612Z,17.90
2019-02-04T20:35:27.401Z,13.77
2019-02-04T20:37:56.250Z,16.30
2019-02-04T20:40:25.055Z,21.37
2019-02-04T20:42:53.863Z,11.40
2019-02-04T20:45:22.714Z,12.70
2019-02-04T20:47:52.520Z,12.40
2019-02-04T20:50:25.694Z,17.10
2019-02-04T20:52:54.543Z,19.23
2019-02-04T20:55:23.379Z,17.47
2019-02-04T20:57:52.206Z,20.83
2019-02-04T21:00:23.070Z,13.47
2019-02-04T21:02:51.921Z,15.70
2019-02-04T21:05:20.691Z,17.20
2019-02-04T21:07:49.531Z,17.57
2019-02-04T21:10:20.278Z,32.77
2019-02-04T21:12:49.081Z,17.83
2019-02-04T21:15:18.537Z,14.83
2019-02-04T21:17:47.315Z,11.97
2019-02-04T21:20:18.169Z,11.87
2019-02-04T21:22:46.958Z,15.37
2019-02-04T21:25:15.854Z,11.90
2019-02-04T21:27:44.672Z,9.97
2019-02-04T21:30:17.518Z,14.70
2019-02-04T21:32:46.268Z,18.70
2019-02-04T21:35:15.166Z,12.47
2019-02-04T21:37:43.953Z,11.50
2019-02-04T21:40:12.752Z,11.97
2019-02-04T21:42:41.634Z,12.50
2019-02-04T21:45:12.102Z,11.30
2019-02-04T21:47:40.874Z,10.90
2019-02-04T21:50:12.436Z,12.30
2019-02-04T21:52:41.231Z,14.47
2019-02-04T21:55:11.120Z,11.47
2019-02-04T21:57:39.951Z,12.20
2019-02-04T22:00:12.177Z,10.83
2019-02-04T22:02:41.048Z,16.40
2019-02-04T22:05:11.412Z,12.90
2019-02-04T22:07:40.445Z,12.33
2019-02-04T22:10:12.782Z,14.03
2019-02-04T22:12:41.644Z,14.37
2019-02-04T22:15:10.424Z,17.63
2019-02-04T22:17:39.259Z,17.67
2019-02-04T22:20:08.850Z,11.37
2019-02-04T22:22:37.723Z,12.43
2019-02-04T22:25:06.618Z,14.57
2019-02-04T22:27:35.791Z,14.80
2019-02-04T22:30:06.402Z,15.07
2019-02-04T22:32:35.174Z,12.87
2019-02-04T22:35:03.988Z,16.27
2019-02-04T22:37:32.842Z,10.83
2019-02-04T22:40:01.639Z,18.90
2019-02-04T22:42:30.480Z,14.97
2019-02-04T22:44:59.261Z,17.80
2019-02-04T22:47:28.103Z,13.40
2019-02-04T22:49:56.967Z,16.50
2019-02-04T22:52:26.140Z,11.00
2019-02-04T22:54:54.947Z,12.93
2019-02-04T22:57:23.811Z,16.27
2019-02-04T22:59:52.695Z,13.67
2019-02-04T23:02:21.494Z,16.77
2019-02-04T23:04:50.309Z,14.57
2019-02-04T23:07:19.164Z,14.63
2019-02-04T23:09:47.993Z,17.73
2019-02-04T23:12:16.799Z,16.10
2019-02-04T23:14:45.568Z,16.77
2019-02-04T23:17:14.340Z,15.80
2019-02-04T23:19:43.181Z,14.97
2019-02-04T23:22:12.065Z,14.40
2019-02-04T23:24:40.958Z,19.13
2019-02-04T23:27:09.879Z,15.47
2019-02-04T23:29:38.714Z,16.30
2019-02-04T23:32:07.729Z,19.37
2019-02-04T23:34:36.345Z,18.20
2019-02-04T23:37:05.203Z,17.93
2019-02-04T23:39:34.046Z,18.53
2019-02-04T23:42:02.819Z,21.40
2019-02-04T23:44:31.721Z,16.17
2019-02-04T23:47:00.513Z,15.23
2019-02-04T23:49:29.380Z,19.13
2019-02-04T23:51:58.270Z,17.67
2019-02-04T23:54:27.167Z,20.23
2019-02-04T23:56:56.021Z,18.63
2019-02-04T23:59:24.850Z,19.30
